SBPP/PMG METAR and TAF weather

Enter ICAO airport designator
Station Type Date Time Source
SBPP METAR 2019/02/21 12:00 UTC NOAA

SBPP 211200Z 30004KT CAVOK 26/21 Q1015


Station Type Date Time Source
SBPP Decoded METAR 2019/02/21 12:00 UTC NOAA

Ponta Pora Intl , Brazil (SBPP) 22-33S 055-42W
Feb 21, 2019 - 07:00 AM EST / 2019.02.21 1200 UTC
Wind: from the WNW (300 degrees) at 5 MPH (4 KT):0
Visibility: greater than 7 mile(s):0
Temperature: 78 F (26 C)
Dew Point: 69 F (21 C)
Relative Humidity: 73%
Pressure (altimeter): 29.97 in. Hg (1015 hPa)
ob: SBPP 211200Z 30004KT CAVOK 26/21 Q1015
cycle: 12

Station Type Date Time Source
SBPP TAF 2019/02/21 12:15 UTC NOAA

TAF SBPP 210900Z 2112/2212 35005KT CAVOK TX31/2118Z TN18/2208Z PROB40 2112/2114 2000 BR NSC
BECMG 2114/2116 26008KT 9999 SCT030 FEW040TCU
BECMG 2200/2202 06010KT CAVOK PROB40 2206/2210 1200 BCFG BKN002
RMK PDJ


Example: see airport list